sensor_id;sensor_type;location;lat;lon;timestamp;P1;durP1;ratioP1;P2;durP2;ratioP2
21890;SDS011;11110;52.386;16.940;2023-02-04T00:01:36;113.30;;;103.43;;
21890;SDS011;11110;52.386;16.940;2023-02-04T00:04:05;111.07;;;101.13;;
21890;SDS011;11110;52.386;16.940;2023-02-04T00:06:33;117.63;;;107.70;;
21890;SDS011;11110;52.386;16.940;2023-02-04T00:09:02;116.57;;;106.67;;
21890;SDS011;11110;52.386;16.940;2023-02-04T00:11:31;115.00;;;104.50;;
21890;SDS011;11110;52.386;16.940;2023-02-04T00:14:00;109.47;;;100.03;;
21890;SDS011;11110;52.386;16.940;2023-02-04T00:16:29;119.83;;;109.97;;
21890;SDS011;11110;52.386;16.940;2023-02-04T00:18:59;124.23;;;113.27;;
21890;SDS011;11110;52.386;16.940;2023-02-04T00:21:27;121.77;;;110.97;;
21890;SDS011;11110;52.386;16.940;2023-02-04T00:23:56;133.33;;;121.73;;
21890;SDS011;11110;52.386;16.940;2023-02-04T00:26:24;139.53;;;126.60;;
21890;SDS011;11110;52.386;16.940;2023-02-04T00:28:53;138.37;;;125.60;;
21890;SDS011;11110;52.386;16.940;2023-02-04T00:31:21;133.23;;;121.77;;
21890;SDS011;11110;52.386;16.940;2023-02-04T00:33:51;126.23;;;114.77;;
21890;SDS011;11110;52.386;16.940;2023-02-04T00:36:21;134.73;;;122.80;;
21890;SDS011;11110;52.386;16.940;2023-02-04T00:38:50;137.53;;;126.07;;
21890;SDS011;11110;52.386;16.940;2023-02-04T00:41:18;140.70;;;128.07;;
21890;SDS011;11110;52.386;16.940;2023-02-04T00:43:47;148.83;;;135.30;;
21890;SDS011;11110;52.386;16.940;2023-02-04T00:46:16;144.77;;;131.63;;
21890;SDS011;11110;52.386;16.940;2023-02-04T00:48:44;122.37;;;111.00;;
21890;SDS011;11110;52.386;16.940;2023-02-04T00:51:13;122.33;;;111.40;;
21890;SDS011;11110;52.386;16.940;2023-02-04T00:53:43;129.40;;;118.53;;
21890;SDS011;11110;52.386;16.940;2023-02-04T00:56:11;125.17;;;114.67;;
21890;SDS011;11110;52.386;16.940;2023-02-04T00:58:41;124.63;;;114.27;;
21890;SDS011;11110;52.386;16.940;2023-02-04T01:01:09;120.67;;;110.40;;
21890;SDS011;11110;52.386;16.940;2023-02-04T01:03:38;141.83;;;128.80;;
21890;SDS011;11110;52.386;16.940;2023-02-04T01:06:06;135.93;;;123.40;;
21890;SDS011;11110;52.386;16.940;2023-02-04T01:08:35;136.87;;;124.07;;
21890;SDS011;11110;52.386;16.940;2023-02-04T01:11:05;141.97;;;129.30;;
21890;SDS011;11110;52.386;16.940;2023-02-04T01:13:34;142.47;;;129.63;;
21890;SDS011;11110;52.386;16.940;2023-02-04T01:16:03;141.90;;;128.90;;
21890;SDS011;11110;52.386;16.940;2023-02-04T01:18:32;142.33;;;129.27;;
21890;SDS011;11110;52.386;16.940;2023-02-04T01:21:00;151.50;;;137.03;;
21890;SDS011;11110;52.386;16.940;2023-02-04T01:23:29;144.00;;;131.00;;
21890;SDS011;11110;52.386;16.940;2023-02-04T01:25:57;128.37;;;116.50;;
21890;SDS011;11110;52.386;16.940;2023-02-04T01:28:27;140.27;;;127.23;;
21890;SDS011;11110;52.386;16.940;2023-02-04T01:30:57;134.27;;;122.60;;
21890;SDS011;11110;52.386;16.940;2023-02-04T01:33:26;138.03;;;125.53;;
21890;SDS011;11110;52.386;16.940;2023-02-04T01:35:55;139.40;;;126.47;;
21890;SDS011;11110;52.386;16.940;2023-02-04T01:38:24;132.50;;;121.07;;
21890;SDS011;11110;52.386;16.940;2023-02-04T01:40:52;142.00;;;128.73;;
21890;SDS011;11110;52.386;16.940;2023-02-04T01:43:21;129.50;;;117.70;;
21890;SDS011;11110;52.386;16.940;2023-02-04T01:45:52;121.97;;;111.77;;
21890;SDS011;11110;52.386;16.940;2023-02-04T01:48:21;123.03;;;111.43;;
21890;SDS011;11110;52.386;16.940;2023-02-04T01:50:52;118.23;;;107.20;;
21890;SDS011;11110;52.386;16.940;2023-02-04T01:53:28;131.83;;;119.27;;
21890;SDS011;11110;52.386;16.940;2023-02-04T01:55:58;129.20;;;117.00;;
21890;SDS011;11110;52.386;16.940;2023-02-04T01:58:27;127.20;;;115.50;;
21890;SDS011;11110;52.386;16.940;2023-02-04T02:00:59;123.10;;;111.07;;
21890;SDS011;11110;52.386;16.940;2023-02-04T02:03:29;127.50;;;115.10;;
21890;SDS011;11110;52.386;16.940;2023-02-04T02:05:59;121.50;;;110.17;;
21890;SDS011;11110;52.386;16.940;2023-02-04T02:08:42;124.43;;;112.90;;
21890;SDS011;11110;52.386;16.940;2023-02-04T02:11:10;121.23;;;108.00;;
21890;SDS011;11110;52.386;16.940;2023-02-04T02:13:39;124.97;;;112.70;;
21890;SDS011;11110;52.386;16.940;2023-02-04T02:16:08;123.63;;;111.60;;
21890;SDS011;11110;52.386;16.940;2023-02-04T02:18:37;130.53;;;116.53;;
21890;SDS011;11110;52.386;16.940;2023-02-04T02:21:07;137.53;;;123.27;;
21890;SDS011;11110;52.386;16.940;2023-02-04T02:23:47;141.17;;;127.23;;
21890;SDS011;11110;52.386;16.940;2023-02-04T02:26:18;133.90;;;119.83;;
21890;SDS011;11110;52.386;16.940;2023-02-04T02:28:49;139.97;;;125.33;;
21890;SDS011;11110;52.386;16.940;2023-02-04T02:31:19;132.97;;;118.50;;
21890;SDS011;11110;52.386;16.940;2023-02-04T02:33:49;129.93;;;116.00;;
21890;SDS011;11110;52.386;16.940;2023-02-04T02:36:18;137.43;;;122.87;;
21890;SDS011;11110;52.386;16.940;2023-02-04T02:38:51;131.57;;;109.17;;
21890;SDS011;11110;52.386;16.940;2023-02-04T02:41:21;128.63;;;111.50;;
21890;SDS011;11110;52.386;16.940;2023-02-04T02:43:50;129.83;;;105.03;;
21890;SDS011;11110;52.386;16.940;2023-02-04T02:46:18;117.87;;;66.90;;
21890;SDS011;11110;52.386;16.940;2023-02-04T02:48:47;136.20;;;121.83;;
21890;SDS011;11110;52.386;16.940;2023-02-04T02:51:16;123.07;;;110.03;;
21890;SDS011;11110;52.386;16.940;2023-02-04T02:53:45;135.43;;;121.33;;
21890;SDS011;11110;52.386;16.940;2023-02-04T02:56:18;129.53;;;116.50;;
21890;SDS011;11110;52.386;16.940;2023-02-04T02:58:47;134.03;;;120.23;;
21890;SDS011;11110;52.386;16.940;2023-02-04T03:01:16;125.97;;;112.70;;
21890;SDS011;11110;52.386;16.940;2023-02-04T03:03:46;135.23;;;121.83;;
21890;SDS011;11110;52.386;16.940;2023-02-04T03:06:18;134.30;;;120.10;;
21890;SDS011;11110;52.386;16.940;2023-02-04T03:08:51;126.30;;;113.83;;
21890;SDS011;11110;52.386;16.940;2023-02-04T03:11:23;117.87;;;105.83;;
21890;SDS011;11110;52.386;16.940;2023-02-04T03:13:56;106.23;;;95.90;;
21890;SDS011;11110;52.386;16.940;2023-02-04T03:16:27;120.90;;;109.33;;
21890;SDS011;11110;52.386;16.940;2023-02-04T03:18:59;120.97;;;108.83;;
21890;SDS011;11110;52.386;16.940;2023-02-04T03:21:28;111.67;;;100.87;;
21890;SDS011;11110;52.386;16.940;2023-02-04T03:23:57;122.93;;;110.73;;
21890;SDS011;11110;52.386;16.940;2023-02-04T03:26:27;129.60;;;115.97;;
21890;SDS011;11110;52.386;16.940;2023-02-04T03:28:56;126.53;;;113.43;;
21890;SDS011;11110;52.386;16.940;2023-02-04T03:31:26;130.67;;;116.83;;
21890;SDS011;11110;52.386;16.940;2023-02-04T03:33:55;128.10;;;114.63;;
21890;SDS011;11110;52.386;16.940;2023-02-04T03:36:24;124.53;;;111.60;;
21890;SDS011;11110;52.386;16.940;2023-02-04T03:38:52;128.80;;;115.43;;
21890;SDS011;11110;52.386;16.940;2023-02-04T03:41:21;121.13;;;108.90;;
21890;SDS011;11110;52.386;16.940;2023-02-04T03:43:51;113.00;;;98.63;;
21890;SDS011;11110;52.386;16.940;2023-02-04T03:46:19;95.97;;;74.57;;
21890;SDS011;11110;52.386;16.940;2023-02-04T03:48:50;103.17;;;72.83;;
21890;SDS011;11110;52.386;16.940;2023-02-04T03:51:18;102.87;;;73.70;;
21890;SDS011;11110;52.386;16.940;2023-02-04T03:53:47;112.17;;;98.47;;
21890;SDS011;11110;52.386;16.940;2023-02-04T03:56:15;120.37;;;105.07;;
21890;SDS011;11110;52.386;16.940;2023-02-04T03:58:44;118.47;;;105.60;;
21890;SDS011;11110;52.386;16.940;2023-02-04T04:01:14;123.77;;;110.17;;
21890;SDS011;11110;52.386;16.940;2023-02-04T04:03:43;128.77;;;114.60;;
21890;SDS011;11110;52.386;16.940;2023-02-04T04:06:11;126.90;;;112.83;;
21890;SDS011;11110;52.386;16.940;2023-02-04T04:08:40;111.90;;;99.57;;
21890;SDS011;11110;52.386;16.940;2023-02-04T04:11:11;124.07;;;110.70;;
21890;SDS011;11110;52.386;16.940;2023-02-04T04:13:39;122.90;;;106.67;;
21890;SDS011;11110;52.386;16.940;2023-02-04T04:16:08;121.67;;;104.37;;
21890;SDS011;11110;52.386;16.940;2023-02-04T04:18:38;122.23;;;105.37;;
21890;SDS011;11110;52.386;16.940;2023-02-04T04:21:07;110.07;;;91.67;;
21890;SDS011;11110;52.386;16.940;2023-02-04T04:23:36;114.00;;;97.77;;
21890;SDS011;11110;52.386;16.940;2023-02-04T04:26:04;126.37;;;112.60;;
21890;SDS011;11110;52.386;16.940;2023-02-04T04:28:33;121.30;;;105.23;;
21890;SDS011;11110;52.386;16.940;2023-02-04T04:31:02;117.33;;;104.83;;
21890;SDS011;11110;52.386;16.940;2023-02-04T04:33:31;117.40;;;104.57;;
21890;SDS011;11110;52.386;16.940;2023-02-04T04:36:00;126.10;;;112.53;;
21890;SDS011;11110;52.386;16.940;2023-02-04T04:38:29;110.40;;;98.50;;
21890;SDS011;11110;52.386;16.940;2023-02-04T04:40:57;105.87;;;84.63;;
21890;SDS011;11110;52.386;16.940;2023-02-04T04:43:26;101.00;;;71.77;;
21890;SDS011;11110;52.386;16.940;2023-02-04T04:45:55;104.27;;;79.73;;
21890;SDS011;11110;52.386;16.940;2023-02-04T04:48:23;107.00;;;94.63;;
21890;SDS011;11110;52.386;16.940;2023-02-04T04:50:52;108.40;;;94.93;;
21890;SDS011;11110;52.386;16.940;2023-02-04T04:53:22;112.63;;;91.03;;
21890;SDS011;11110;52.386;16.940;2023-02-04T04:55:50;103.83;;;81.53;;
21890;SDS011;11110;52.386;16.940;2023-02-04T04:58:19;103.70;;;85.20;;
21890;SDS011;11110;52.386;16.940;2023-02-04T05:00:47;111.47;;;95.10;;
21890;SDS011;11110;52.386;16.940;2023-02-04T05:03:16;116.40;;;101.43;;
21890;SDS011;11110;52.386;16.940;2023-02-04T05:05:44;119.80;;;101.73;;
21890;SDS011;11110;52.386;16.940;2023-02-04T05:08:13;114.70;;;100.17;;
21890;SDS011;11110;52.386;16.940;2023-02-04T05:10:43;109.33;;;96.60;;
21890;SDS011;11110;52.386;16.940;2023-02-04T05:13:12;106.27;;;81.70;;
21890;SDS011;11110;52.386;16.940;2023-02-04T05:15:41;103.03;;;73.93;;
21890;SDS011;11110;52.386;16.940;2023-02-04T05:18:10;93.80;;;64.23;;
21890;SDS011;11110;52.386;16.940;2023-02-04T05:20:38;103.60;;;67.43;;
21890;SDS011;11110;52.386;16.940;2023-02-04T05:23:07;91.13;;;62.17;;
21890;SDS011;11110;52.386;16.940;2023-02-04T05:25:36;91.97;;;64.70;;
21890;SDS011;11110;52.386;16.940;2023-02-04T05:28:06;97.63;;;63.87;;
21890;SDS011;11110;52.386;16.940;2023-02-04T05:30:34;89.77;;;61.93;;
21890;SDS011;11110;52.386;16.940;2023-02-04T05:33:03;82.10;;;59.83;;
21890;SDS011;11110;52.386;16.940;2023-02-04T05:35:31;99.53;;;63.10;;
21890;SDS011;11110;52.386;16.940;2023-02-04T05:38:00;78.03;;;57.80;;
21890;SDS011;11110;52.386;16.940;2023-02-04T05:40:28;81.07;;;59.83;;
21890;SDS011;11110;52.386;16.940;2023-02-04T05:42:58;89.80;;;60.83;;
21890;SDS011;11110;52.386;16.940;2023-02-04T05:45:27;91.83;;;65.37;;
21890;SDS011;11110;52.386;16.940;2023-02-04T05:47:56;97.07;;;74.97;;
21890;SDS011;11110;52.386;16.940;2023-02-04T05:50:25;91.47;;;62.47;;
21890;SDS011;11110;52.386;16.940;2023-02-04T05:53:07;96.60;;;63.33;;
21890;SDS011;11110;52.386;16.940;2023-02-04T05:55:35;103.47;;;87.27;;
21890;SDS011;11110;52.386;16.940;2023-02-04T05:58:04;104.30;;;69.63;;
21890;SDS011;11110;52.386;16.940;2023-02-04T06:00:34;84.53;;;59.27;;
21890;SDS011;11110;52.386;16.940;2023-02-04T06:03:02;79.13;;;57.47;;
21890;SDS011;11110;52.386;16.940;2023-02-04T06:05:31;84.67;;;58.47;;
21890;SDS011;11110;52.386;16.940;2023-02-04T06:08:00;75.63;;;56.53;;
21890;SDS011;11110;52.386;16.940;2023-02-04T06:10:28;76.37;;;56.10;;
21890;SDS011;11110;52.386;16.940;2023-02-04T06:12:57;70.20;;;55.00;;
21890;SDS011;11110;52.386;16.940;2023-02-04T06:15:26;67.33;;;55.13;;
21890;SDS011;11110;52.386;16.940;2023-02-04T06:17:56;72.07;;;56.73;;
21890;SDS011;11110;52.386;16.940;2023-02-04T06:20:25;76.33;;;58.13;;
21890;SDS011;11110;52.386;16.940;2023-02-04T06:22:53;80.17;;;58.27;;
21890;SDS011;11110;52.386;16.940;2023-02-04T06:25:22;94.97;;;63.73;;
21890;SDS011;11110;52.386;16.940;2023-02-04T06:27:51;101.23;;;79.03;;
21890;SDS011;11110;52.386;16.940;2023-02-04T06:30:19;101.80;;;90.70;;
21890;SDS011;11110;52.386;16.940;2023-02-04T06:32:48;103.50;;;78.23;;
21890;SDS011;11110;52.386;16.940;2023-02-04T06:35:18;115.60;;;97.87;;
21890;SDS011;11110;52.386;16.940;2023-02-04T06:37:46;97.97;;;66.47;;
21890;SDS011;11110;52.386;16.940;2023-02-04T06:40:15;116.20;;;103.30;;
21890;SDS011;11110;52.386;16.940;2023-02-04T06:42:44;114.93;;;102.33;;
21890;SDS011;11110;52.386;16.940;2023-02-04T06:45:12;119.73;;;107.20;;
21890;SDS011;11110;52.386;16.940;2023-02-04T06:47:41;123.20;;;110.07;;
21890;SDS011;11110;52.386;16.940;2023-02-04T06:50:09;128.83;;;108.60;;
21890;SDS011;11110;52.386;16.940;2023-02-04T06:52:39;127.40;;;113.67;;
21890;SDS011;11110;52.386;16.940;2023-02-04T06:55:08;120.37;;;107.77;;
21890;SDS011;11110;52.386;16.940;2023-02-04T06:57:37;116.83;;;96.30;;
21890;SDS011;11110;52.386;16.940;2023-02-04T07:00:06;122.63;;;110.00;;
21890;SDS011;11110;52.386;16.940;2023-02-04T07:02:37;122.60;;;106.37;;
21890;SDS011;11110;52.386;16.940;2023-02-04T07:05:05;135.57;;;120.60;;
21890;SDS011;11110;52.386;16.940;2023-02-04T07:07:34;131.30;;;117.43;;
21890;SDS011;11110;52.386;16.940;2023-02-04T07:10:05;137.50;;;123.90;;
21890;SDS011;11110;52.386;16.940;2023-02-04T07:12:34;153.07;;;138.20;;
21890;SDS011;11110;52.386;16.940;2023-02-04T07:15:02;118.00;;;105.13;;
21890;SDS011;11110;52.386;16.940;2023-02-04T07:17:32;119.73;;;103.37;;
21890;SDS011;11110;52.386;16.940;2023-02-04T07:20:00;133.13;;;111.73;;
21890;SDS011;11110;52.386;16.940;2023-02-04T07:22:29;138.07;;;123.40;;
21890;SDS011;11110;52.386;16.940;2023-02-04T07:24:57;147.60;;;133.40;;
21890;SDS011;11110;52.386;16.940;2023-02-04T07:27:27;145.13;;;130.20;;
21890;SDS011;11110;52.386;16.940;2023-02-04T07:29:56;136.60;;;121.73;;
21890;SDS011;11110;52.386;16.940;2023-02-04T07:32:25;149.00;;;133.87;;
21890;SDS011;11110;52.386;16.940;2023-02-04T07:34:58;120.17;;;93.27;;
21890;SDS011;11110;52.386;16.940;2023-02-04T07:37:27;114.83;;;77.43;;
21890;SDS011;11110;52.386;16.940;2023-02-04T07:39:56;105.30;;;84.27;;
21890;SDS011;11110;52.386;16.940;2023-02-04T07:42:24;119.27;;;95.13;;
21890;SDS011;11110;52.386;16.940;2023-02-04T07:45:04;105.13;;;66.03;;
21890;SDS011;11110;52.386;16.940;2023-02-04T07:47:33;99.33;;;65.73;;
21890;SDS011;11110;52.386;16.940;2023-02-04T07:50:01;110.70;;;64.37;;
21890;SDS011;11110;52.386;16.940;2023-02-04T07:52:30;114.87;;;72.73;;
21890;SDS011;11110;52.386;16.940;2023-02-04T07:54:59;109.37;;;72.27;;
21890;SDS011;11110;52.386;16.940;2023-02-04T07:57:28;110.40;;;65.30;;
21890;SDS011;11110;52.386;16.940;2023-02-04T07:59:56;100.53;;;62.03;;
21890;SDS011;11110;52.386;16.940;2023-02-04T08:02:26;101.80;;;61.70;;
21890;SDS011;11110;52.386;16.940;2023-02-04T08:04:55;114.87;;;66.43;;
21890;SDS011;11110;52.386;16.940;2023-02-04T08:07:24;94.10;;;59.73;;
21890;SDS011;11110;52.386;16.940;2023-02-04T08:09:52;92.17;;;59.70;;
21890;SDS011;11110;52.386;16.940;2023-02-04T08:12:21;105.13;;;61.07;;
21890;SDS011;11110;52.386;16.940;2023-02-04T08:14:49;96.07;;;59.33;;
21890;SDS011;11110;52.386;16.940;2023-02-04T08:17:18;109.17;;;63.13;;
21890;SDS011;11110;52.386;16.940;2023-02-04T08:19:48;109.90;;;63.53;;
21890;SDS011;11110;52.386;16.940;2023-02-04T08:22:17;107.53;;;61.47;;
21890;SDS011;11110;52.386;16.940;2023-02-04T08:24:45;97.33;;;60.47;;
21890;SDS011;11110;52.386;16.940;2023-02-04T08:27:14;103.10;;;62.57;;
21890;SDS011;11110;52.386;16.940;2023-02-04T08:29:42;91.67;;;59.50;;
21890;SDS011;11110;52.386;16.940;2023-02-04T08:32:11;97.20;;;62.03;;
21890;SDS011;11110;52.386;16.940;2023-02-04T08:34:40;97.30;;;61.53;;
21890;SDS011;11110;52.386;16.940;2023-02-04T08:37:11;103.63;;;63.30;;
21890;SDS011;11110;52.386;16.940;2023-02-04T08:39:39;94.97;;;60.97;;
21890;SDS011;11110;52.386;16.940;2023-02-04T08:42:12;114.17;;;64.83;;
21890;SDS011;11110;52.386;16.940;2023-02-04T08:44:40;111.97;;;74.13;;
21890;SDS011;11110;52.386;16.940;2023-02-04T08:47:10;107.37;;;64.00;;
21890;SDS011;11110;52.386;16.940;2023-02-04T08:49:38;102.13;;;62.93;;
21890;SDS011;11110;52.386;16.940;2023-02-04T08:52:07;106.83;;;62.80;;
21890;SDS011;11110;52.386;16.940;2023-02-04T08:54:37;114.20;;;65.67;;
21890;SDS011;11110;52.386;16.940;2023-02-04T08:57:06;101.57;;;62.30;;
21890;SDS011;11110;52.386;16.940;2023-02-04T08:59:34;102.50;;;61.20;;
21890;SDS011;11110;52.386;16.940;2023-02-04T09:02:03;96.40;;;62.03;;
21890;SDS011;11110;52.386;16.940;2023-02-04T09:04:31;92.87;;;62.90;;
21890;SDS011;11110;52.386;16.940;2023-02-04T09:07:00;91.53;;;62.20;;
21890;SDS011;11110;52.386;16.940;2023-02-04T09:09:29;98.03;;;63.20;;
21890;SDS011;11110;52.386;16.940;2023-02-04T09:11:59;105.50;;;62.10;;
21890;SDS011;11110;52.386;16.940;2023-02-04T09:14:28;111.80;;;63.93;;
21890;SDS011;11110;52.386;16.940;2023-02-04T09:16:57;107.20;;;63.23;;
21890;SDS011;11110;52.386;16.940;2023-02-04T09:19:25;106.93;;;61.37;;
21890;SDS011;11110;52.386;16.940;2023-02-04T09:21:54;100.00;;;61.57;;
21890;SDS011;11110;52.386;16.940;2023-02-04T09:24:22;103.37;;;62.37;;
21890;SDS011;11110;52.386;16.940;2023-02-04T09:26:51;105.03;;;61.53;;
21890;SDS011;11110;52.386;16.940;2023-02-04T09:29:21;117.53;;;65.30;;
21890;SDS011;11110;52.386;16.940;2023-02-04T09:31:50;104.10;;;61.43;;
21890;SDS011;11110;52.386;16.940;2023-02-04T09:34:18;106.10;;;61.17;;
21890;SDS011;11110;52.386;16.940;2023-02-04T09:36:47;104.90;;;61.17;;
21890;SDS011;11110;52.386;16.940;2023-02-04T09:39:15;106.70;;;61.47;;
21890;SDS011;11110;52.386;16.940;2023-02-04T09:41:44;98.30;;;65.53;;
21890;SDS011;11110;52.386;16.940;2023-02-04T09:44:13;106.27;;;67.50;;
21890;SDS011;11110;52.386;16.940;2023-02-04T09:46:47;109.37;;;68.87;;
21890;SDS011;11110;52.386;16.940;2023-02-04T09:49:17;100.83;;;67.33;;
21890;SDS011;11110;52.386;16.940;2023-02-04T09:51:46;121.03;;;100.00;;
21890;SDS011;11110;52.386;16.940;2023-02-04T09:54:17;109.17;;;68.90;;
21890;SDS011;11110;52.386;16.940;2023-02-04T09:56:47;114.50;;;80.73;;
21890;SDS011;11110;52.386;16.940;2023-02-04T09:59:17;116.87;;;80.40;;
21890;SDS011;11110;52.386;16.940;2023-02-04T10:01:48;101.47;;;71.53;;
21890;SDS011;11110;52.386;16.940;2023-02-04T10:04:22;102.40;;;75.33;;
21890;SDS011;11110;52.386;16.940;2023-02-04T10:06:51;108.37;;;73.93;;
21890;SDS011;11110;52.386;16.940;2023-02-04T10:09:20;108.03;;;75.17;;
21890;SDS011;11110;52.386;16.940;2023-02-04T10:11:49;100.10;;;76.13;;
21890;SDS011;11110;52.386;16.940;2023-02-04T10:14:18;115.53;;;97.90;;
21890;SDS011;11110;52.386;16.940;2023-02-04T10:16:53;104.70;;;81.57;;
21890;SDS011;11110;52.386;16.940;2023-02-04T10:19:25;91.40;;;74.07;;
21890;SDS011;11110;52.386;16.940;2023-02-04T10:21:55;98.57;;;78.20;;
21890;SDS011;11110;52.386;16.940;2023-02-04T10:24:25;92.00;;;80.10;;
21890;SDS011;11110;52.386;16.940;2023-02-04T10:27:05;99.13;;;77.30;;
21890;SDS011;11110;52.386;16.940;2023-02-04T10:29:35;95.07;;;74.47;;
21890;SDS011;11110;52.386;16.940;2023-02-04T10:32:05;89.70;;;78.70;;
21890;SDS011;11110;52.386;16.940;2023-02-04T10:34:48;93.20;;;77.60;;
21890;SDS011;11110;52.386;16.940;2023-02-04T10:37:17;103.73;;;86.07;;
21890;SDS011;11110;52.386;16.940;2023-02-04T10:39:47;103.27;;;84.27;;
21890;SDS011;11110;52.386;16.940;2023-02-04T10:42:20;98.97;;;79.30;;
21890;SDS011;11110;52.386;16.940;2023-02-04T10:44:49;100.20;;;76.57;;
21890;SDS011;11110;52.386;16.940;2023-02-04T10:47:20;97.93;;;75.53;;
21890;SDS011;11110;52.386;16.940;2023-02-04T10:49:50;97.73;;;75.47;;
21890;SDS011;11110;52.386;16.940;2023-02-04T10:52:27;104.67;;;87.33;;
21890;SDS011;11110;52.386;16.940;2023-02-04T10:55:01;120.33;;;107.30;;
21890;SDS011;11110;52.386;16.940;2023-02-04T10:57:31;103.20;;;90.43;;
21890;SDS011;11110;52.386;16.940;2023-02-04T11:00:06;111.47;;;91.80;;
21890;SDS011;11110;52.386;16.940;2023-02-04T11:02:46;99.40;;;81.77;;
21890;SDS011;11110;52.386;16.940;2023-02-04T11:05:21;103.83;;;85.67;;
21890;SDS011;11110;52.386;16.940;2023-02-04T11:07:52;117.47;;;105.17;;
21890;SDS011;11110;52.386;16.940;2023-02-04T11:10:21;115.50;;;102.90;;
21890;SDS011;11110;52.386;16.940;2023-02-04T11:12:59;126.93;;;113.93;;
21890;SDS011;11110;52.386;16.940;2023-02-04T11:15:36;109.90;;;95.23;;
21890;SDS011;11110;52.386;16.940;2023-02-04T11:18:24;97.50;;;80.97;;
21890;SDS011;11110;52.386;16.940;2023-02-04T11:20:56;91.27;;;79.07;;
21890;SDS011;11110;52.386;16.940;2023-02-04T11:23:33;90.53;;;74.03;;
21890;SDS011;11110;52.386;16.940;2023-02-04T11:26:07;97.27;;;72.63;;
21890;SDS011;11110;52.386;16.940;2023-02-04T11:28:47;99.93;;;79.13;;
21890;SDS011;11110;52.386;16.940;2023-02-04T11:31:28;102.43;;;74.83;;
21890;SDS011;11110;52.386;16.940;2023-02-04T11:34:11;85.67;;;70.63;;
21890;SDS011;11110;52.386;16.940;2023-02-04T11:36:56;93.77;;;72.83;;
21890;SDS011;11110;52.386;16.940;2023-02-04T11:39:38;95.23;;;73.40;;
21890;SDS011;11110;52.386;16.940;2023-02-04T11:42:18;92.97;;;80.67;;
21890;SDS011;11110;52.386;16.940;2023-02-04T11:44:50;94.43;;;80.53;;
21890;SDS011;11110;52.386;16.940;2023-02-04T11:47:21;88.07;;;72.40;;
21890;SDS011;11110;52.386;16.940;2023-02-04T11:49:55;92.43;;;71.73;;
21890;SDS011;11110;52.386;16.940;2023-02-04T11:52:25;99.03;;;73.13;;
21890;SDS011;11110;52.386;16.940;2023-02-04T11:54:54;121.23;;;108.83;;
21890;SDS011;11110;52.386;16.940;2023-02-04T11:57:25;96.20;;;74.07;;
21890;SDS011;11110;52.386;16.940;2023-02-04T11:59:54;118.57;;;105.67;;
21890;SDS011;11110;52.386;16.940;2023-02-04T12:02:23;125.03;;;111.93;;
21890;SDS011;11110;52.386;16.940;2023-02-04T12:04:55;106.43;;;91.47;;
21890;SDS011;11110;52.386;16.940;2023-02-04T12:07:25;100.40;;;76.00;;
21890;SDS011;11110;52.386;16.940;2023-02-04T12:09:55;80.20;;;70.77;;
21890;SDS011;11110;52.386;16.940;2023-02-04T12:12:25;76.03;;;68.03;;
21890;SDS011;11110;52.386;16.940;2023-02-04T12:14:57;86.27;;;74.97;;
21890;SDS011;11110;52.386;16.940;2023-02-04T12:17:29;78.00;;;66.13;;
21890;SDS011;11110;52.386;16.940;2023-02-04T12:19:59;87.27;;;74.90;;
21890;SDS011;11110;52.386;16.940;2023-02-04T12:22:27;95.00;;;74.43;;
21890;SDS011;11110;52.386;16.940;2023-02-04T12:24:56;94.83;;;66.20;;
21890;SDS011;11110;52.386;16.940;2023-02-04T12:27:24;103.50;;;66.77;;
21890;SDS011;11110;52.386;16.940;2023-02-04T12:29:53;100.50;;;67.07;;
21890;SDS011;11110;52.386;16.940;2023-02-04T12:32:22;100.73;;;66.43;;
21890;SDS011;11110;52.386;16.940;2023-02-04T12:34:51;102.13;;;66.50;;
21890;SDS011;11110;52.386;16.940;2023-02-04T12:37:21;97.63;;;64.27;;
21890;SDS011;11110;52.386;16.940;2023-02-04T12:39:50;95.87;;;64.23;;
21890;SDS011;11110;52.386;16.940;2023-02-04T12:42:18;97.60;;;63.83;;
21890;SDS011;11110;52.386;16.940;2023-02-04T12:44:47;97.10;;;63.73;;
21890;SDS011;11110;52.386;16.940;2023-02-04T12:47:16;82.30;;;61.07;;
21890;SDS011;11110;52.386;16.940;2023-02-04T12:49:44;91.70;;;61.20;;
21890;SDS011;11110;52.386;16.940;2023-02-04T12:52:13;88.23;;;59.13;;
21890;SDS011;11110;52.386;16.940;2023-02-04T12:54:44;89.50;;;62.00;;
21890;SDS011;11110;52.386;16.940;2023-02-04T12:57:12;111.70;;;64.80;;
21890;SDS011;11110;52.386;16.940;2023-02-04T12:59:45;114.63;;;68.37;;
21890;SDS011;11110;52.386;16.940;2023-02-04T13:02:14;119.17;;;80.23;;
21890;SDS011;11110;52.386;16.940;2023-02-04T13:04:43;122.97;;;100.80;;
21890;SDS011;11110;52.386;16.940;2023-02-04T13:07:12;108.83;;;65.60;;
21890;SDS011;11110;52.386;16.940;2023-02-04T13:09:40;91.73;;;58.20;;
21890;SDS011;11110;52.386;16.940;2023-02-04T13:12:12;92.23;;;57.97;;
21890;SDS011;11110;52.386;16.940;2023-02-04T13:14:41;97.93;;;59.87;;
21890;SDS011;11110;52.386;16.940;2023-02-04T13:17:09;98.77;;;59.87;;
21890;SDS011;11110;52.386;16.940;2023-02-04T13:19:38;100.93;;;59.13;;
21890;SDS011;11110;52.386;16.940;2023-02-04T13:22:06;95.67;;;60.67;;
21890;SDS011;11110;52.386;16.940;2023-02-04T13:24:35;102.17;;;61.93;;
21890;SDS011;11110;52.386;16.940;2023-02-04T13:27:04;100.83;;;61.00;;
21890;SDS011;11110;52.386;16.940;2023-02-04T13:29:34;93.90;;;58.60;;
21890;SDS011;11110;52.386;16.940;2023-02-04T13:32:03;91.30;;;59.47;;
21890;SDS011;11110;52.386;16.940;2023-02-04T13:34:32;81.80;;;57.77;;
21890;SDS011;11110;52.386;16.940;2023-02-04T13:37:00;73.97;;;56.67;;
21890;SDS011;11110;52.386;16.940;2023-02-04T13:39:29;79.30;;;57.77;;
21890;SDS011;11110;52.386;16.940;2023-02-04T13:41:58;82.03;;;58.10;;
21890;SDS011;11110;52.386;16.940;2023-02-04T13:44:27;84.20;;;59.90;;
21890;SDS011;11110;52.386;16.940;2023-02-04T13:46:56;89.57;;;58.23;;
21890;SDS011;11110;52.386;16.940;2023-02-04T13:49:25;84.20;;;58.30;;
21890;SDS011;11110;52.386;16.940;2023-02-04T13:51:53;79.63;;;56.77;;
21890;SDS011;11110;52.386;16.940;2023-02-04T13:54:22;80.57;;;58.03;;
21890;SDS011;11110;52.386;16.940;2023-02-04T13:56:50;77.93;;;58.40;;
21890;SDS011;11110;52.386;16.940;2023-02-04T13:59:20;87.70;;;59.67;;
21890;SDS011;11110;52.386;16.940;2023-02-04T14:01:48;80.93;;;58.90;;
21890;SDS011;11110;52.386;16.940;2023-02-04T14:04:18;81.77;;;58.73;;
21890;SDS011;11110;52.386;16.940;2023-02-04T14:06:47;83.27;;;58.70;;
21890;SDS011;11110;52.386;16.940;2023-02-04T14:09:15;83.57;;;58.53;;
21890;SDS011;11110;52.386;16.940;2023-02-04T14:11:44;81.73;;;58.03;;